sensor_id;sensor_type;location;lat;lon;timestamp;temperature;humidity
47168;DHT22;32931;47.778;17.806;2023-08-08T00:02:16;15.40;99.90
47168;DHT22;32931;47.778;17.806;2023-08-08T00:04:43;15.40;99.90
47168;DHT22;32931;47.778;17.806;2023-08-08T00:07:09;15.40;99.90
47168;DHT22;32931;47.778;17.806;2023-08-08T00:09:36;15.40;99.90
47168;DHT22;32931;47.778;17.806;2023-08-08T00:12:03;15.40;99.90
47168;DHT22;32931;47.778;17.806;2023-08-08T00:14:30;15.40;99.90
47168;DHT22;32931;47.778;17.806;2023-08-08T00:16:56;15.50;99.90
47168;DHT22;32931;47.778;17.806;2023-08-08T00:19:22;15.50;99.90
47168;DHT22;32931;47.778;17.806;2023-08-08T00:21:48;15.50;99.90
47168;DHT22;32931;47.778;17.806;2023-08-08T00:24:14;15.50;99.90
47168;DHT22;32931;47.778;17.806;2023-08-08T00:26:40;15.60;99.90
47168;DHT22;32931;47.778;17.806;2023-08-08T00:29:06;15.60;99.90
47168;DHT22;32931;47.778;17.806;2023-08-08T00:31:32;15.60;99.90
47168;DHT22;32931;47.778;17.806;2023-08-08T00:33:59;15.60;99.90
47168;DHT22;32931;47.778;17.806;2023-08-08T00:36:25;15.60;99.90
47168;DHT22;32931;47.778;17.806;2023-08-08T00:38:51;15.60;99.90
47168;DHT22;32931;47.778;17.806;2023-08-08T00:41:17;15.60;99.90
47168;DHT22;32931;47.778;17.806;2023-08-08T00:43:43;15.60;99.90
47168;DHT22;32931;47.778;17.806;2023-08-08T00:46:10;15.60;99.90
47168;DHT22;32931;47.778;17.806;2023-08-08T00:48:36;15.60;99.90
47168;DHT22;32931;47.778;17.806;2023-08-08T00:51:03;15.60;99.90
47168;DHT22;32931;47.778;17.806;2023-08-08T00:53:30;15.60;99.90
47168;DHT22;32931;47.778;17.806;2023-08-08T00:55:58;15.60;99.90
47168;DHT22;32931;47.778;17.806;2023-08-08T00:58:25;15.70;99.90
47168;DHT22;32931;47.778;17.806;2023-08-08T01:00:52;15.60;99.90
47168;DHT22;32931;47.778;17.806;2023-08-08T01:03:20;15.70;99.90
47168;DHT22;32931;47.778;17.806;2023-08-08T01:05:57;15.70;99.90
47168;DHT22;32931;47.778;17.806;2023-08-08T01:08:31;15.70;99.90
47168;DHT22;32931;47.778;17.806;2023-08-08T01:10:59;15.60;99.90
47168;DHT22;32931;47.778;17.806;2023-08-08T01:13:26;15.70;99.90
47168;DHT22;32931;47.778;17.806;2023-08-08T01:15:55;15.60;99.90
47168;DHT22;32931;47.778;17.806;2023-08-08T01:18:23;15.60;99.90
47168;DHT22;32931;47.778;17.806;2023-08-08T01:20:51;15.70;99.90
47168;DHT22;32931;47.778;17.806;2023-08-08T01:23:42;15.70;99.90
47168;DHT22;32931;47.778;17.806;2023-08-08T01:26:09;15.60;99.90
47168;DHT22;32931;47.778;17.806;2023-08-08T01:28:35;15.60;99.90
47168;DHT22;32931;47.778;17.806;2023-08-08T01:31:02;15.60;99.90
47168;DHT22;32931;47.778;17.806;2023-08-08T01:33:28;15.50;99.90
47168;DHT22;32931;47.778;17.806;2023-08-08T01:35:58;15.50;99.90
47168;DHT22;32931;47.778;17.806;2023-08-08T01:38:31;15.50;99.90
47168;DHT22;32931;47.778;17.806;2023-08-08T01:40:59;15.50;99.90
47168;DHT22;32931;47.778;17.806;2023-08-08T01:43:26;15.50;99.90
47168;DHT22;32931;47.778;17.806;2023-08-08T01:45:54;15.40;99.90
47168;DHT22;32931;47.778;17.806;2023-08-08T01:48:20;15.40;99.90
47168;DHT22;32931;47.778;17.806;2023-08-08T01:50:46;15.40;99.90
47168;DHT22;32931;47.778;17.806;2023-08-08T01:53:12;15.40;99.90
47168;DHT22;32931;47.778;17.806;2023-08-08T01:55:38;15.40;99.90
47168;DHT22;32931;47.778;17.806;2023-08-08T01:58:04;15.30;99.90
47168;DHT22;32931;47.778;17.806;2023-08-08T02:00:31;15.30;99.90
47168;DHT22;32931;47.778;17.806;2023-08-08T02:02:57;15.30;99.90
47168;DHT22;32931;47.778;17.806;2023-08-08T02:05:24;15.30;99.90
47168;DHT22;32931;47.778;17.806;2023-08-08T02:07:50;15.20;99.90
47168;DHT22;32931;47.778;17.806;2023-08-08T02:10:16;15.20;99.90
47168;DHT22;32931;47.778;17.806;2023-08-08T02:12:42;15.20;99.90
47168;DHT22;32931;47.778;17.806;2023-08-08T02:15:08;15.20;99.90
47168;DHT22;32931;47.778;17.806;2023-08-08T02:17:37;15.20;99.90
47168;DHT22;32931;47.778;17.806;2023-08-08T02:20:04;15.20;99.90
47168;DHT22;32931;47.778;17.806;2023-08-08T02:22:30;15.10;99.90
47168;DHT22;32931;47.778;17.806;2023-08-08T02:24:57;15.10;99.90
47168;DHT22;32931;47.778;17.806;2023-08-08T02:27:23;15.10;99.90
47168;DHT22;32931;47.778;17.806;2023-08-08T02:29:49;15.10;99.90
47168;DHT22;32931;47.778;17.806;2023-08-08T02:32:15;15.20;99.90
47168;DHT22;32931;47.778;17.806;2023-08-08T02:34:41;15.20;99.90
47168;DHT22;32931;47.778;17.806;2023-08-08T02:37:08;15.10;99.90
47168;DHT22;32931;47.778;17.806;2023-08-08T02:39:34;15.10;99.90
47168;DHT22;32931;47.778;17.806;2023-08-08T02:42:00;15.10;99.90
47168;DHT22;32931;47.778;17.806;2023-08-08T02:44:27;15.10;99.90
47168;DHT22;32931;47.778;17.806;2023-08-08T02:46:53;15.10;99.90
47168;DHT22;32931;47.778;17.806;2023-08-08T02:49:20;15.00;99.90
47168;DHT22;32931;47.778;17.806;2023-08-08T02:51:46;15.00;99.90
47168;DHT22;32931;47.778;17.806;2023-08-08T02:54:12;15.00;99.90
47168;DHT22;32931;47.778;17.806;2023-08-08T02:56:38;15.00;99.90
47168;DHT22;32931;47.778;17.806;2023-08-08T02:59:04;15.00;99.90
47168;DHT22;32931;47.778;17.806;2023-08-08T03:01:30;14.90;99.90
47168;DHT22;32931;47.778;17.806;2023-08-08T03:03:56;14.90;99.90
47168;DHT22;32931;47.778;17.806;2023-08-08T03:06:22;14.90;99.90
47168;DHT22;32931;47.778;17.806;2023-08-08T03:08:49;14.90;99.90
47168;DHT22;32931;47.778;17.806;2023-08-08T03:11:15;14.80;99.90
47168;DHT22;32931;47.778;17.806;2023-08-08T03:13:41;14.80;99.90
47168;DHT22;32931;47.778;17.806;2023-08-08T03:16:07;14.90;99.90
47168;DHT22;32931;47.778;17.806;2023-08-08T03:18:33;14.80;99.90
47168;DHT22;32931;47.778;17.806;2023-08-08T03:20:59;14.80;99.90
47168;DHT22;32931;47.778;17.806;2023-08-08T03:23:25;14.80;99.90
47168;DHT22;32931;47.778;17.806;2023-08-08T03:25:52;14.80;99.90
47168;DHT22;32931;47.778;17.806;2023-08-08T03:28:18;14.80;99.90
47168;DHT22;32931;47.778;17.806;2023-08-08T03:30:44;14.80;99.90
47168;DHT22;32931;47.778;17.806;2023-08-08T03:33:10;14.80;99.90
47168;DHT22;32931;47.778;17.806;2023-08-08T03:35:36;14.80;99.90
47168;DHT22;32931;47.778;17.806;2023-08-08T03:38:02;14.80;99.90
47168;DHT22;32931;47.778;17.806;2023-08-08T03:40:28;14.80;99.90
47168;DHT22;32931;47.778;17.806;2023-08-08T03:42:55;14.80;99.90
47168;DHT22;32931;47.778;17.806;2023-08-08T03:45:21;14.80;99.90
47168;DHT22;32931;47.778;17.806;2023-08-08T03:47:47;14.90;99.90
47168;DHT22;32931;47.778;17.806;2023-08-08T03:50:13;14.90;99.90
47168;DHT22;32931;47.778;17.806;2023-08-08T03:52:39;14.90;99.90
47168;DHT22;32931;47.778;17.806;2023-08-08T03:55:06;14.90;99.90
47168;DHT22;32931;47.778;17.806;2023-08-08T03:57:32;14.90;99.90
47168;DHT22;32931;47.778;17.806;2023-08-08T03:59:58;14.90;99.90
47168;DHT22;32931;47.778;17.806;2023-08-08T04:02:24;14.80;99.90
47168;DHT22;32931;47.778;17.806;2023-08-08T04:04:51;14.80;99.90
47168;DHT22;32931;47.778;17.806;2023-08-08T04:07:17;14.80;99.90
47168;DHT22;32931;47.778;17.806;2023-08-08T04:09:43;14.80;99.90
47168;DHT22;32931;47.778;17.806;2023-08-08T04:12:09;14.80;99.90
47168;DHT22;32931;47.778;17.806;2023-08-08T04:14:36;14.70;99.90
47168;DHT22;32931;47.778;17.806;2023-08-08T04:17:02;14.70;99.90
47168;DHT22;32931;47.778;17.806;2023-08-08T04:19:28;14.70;99.90
47168;DHT22;32931;47.778;17.806;2023-08-08T04:21:55;14.70;99.90
47168;DHT22;32931;47.778;17.806;2023-08-08T04:24:21;14.70;99.90
47168;DHT22;32931;47.778;17.806;2023-08-08T04:26:47;14.70;99.90
47168;DHT22;32931;47.778;17.806;2023-08-08T04:29:13;14.70;99.90
47168;DHT22;32931;47.778;17.806;2023-08-08T04:31:39;14.70;99.90
47168;DHT22;32931;47.778;17.806;2023-08-08T04:34:05;14.70;99.90
47168;DHT22;32931;47.778;17.806;2023-08-08T04:36:31;14.70;99.90
47168;DHT22;32931;47.778;17.806;2023-08-08T04:38:57;14.70;99.90
47168;DHT22;32931;47.778;17.806;2023-08-08T04:41:24;14.60;99.90
47168;DHT22;32931;47.778;17.806;2023-08-08T04:43:50;14.60;99.90
47168;DHT22;32931;47.778;17.806;2023-08-08T04:46:16;14.70;99.90
47168;DHT22;32931;47.778;17.806;2023-08-08T04:48:42;14.60;99.90
47168;DHT22;32931;47.778;17.806;2023-08-08T04:51:09;14.60;99.90
47168;DHT22;32931;47.778;17.806;2023-08-08T04:53:35;14.60;99.90
47168;DHT22;32931;47.778;17.806;2023-08-08T04:56:01;14.60;99.90
47168;DHT22;32931;47.778;17.806;2023-08-08T04:58:27;14.60;99.90
47168;DHT22;32931;47.778;17.806;2023-08-08T05:00:54;14.60;99.90
47168;DHT22;32931;47.778;17.806;2023-08-08T05:03:21;14.70;99.90
47168;DHT22;32931;47.778;17.806;2023-08-08T05:05:47;14.70;99.90
47168;DHT22;32931;47.778;17.806;2023-08-08T05:08:13;14.70;99.90
47168;DHT22;32931;47.778;17.806;2023-08-08T05:10:40;14.80;99.90
47168;DHT22;32931;47.778;17.806;2023-08-08T05:13:06;14.90;99.90
47168;DHT22;32931;47.778;17.806;2023-08-08T05:15:32;14.90;99.90
47168;DHT22;32931;47.778;17.806;2023-08-08T05:17:58;15.00;99.90
47168;DHT22;32931;47.778;17.806;2023-08-08T05:20:25;15.00;99.90
47168;DHT22;32931;47.778;17.806;2023-08-08T05:22:51;15.10;99.90
47168;DHT22;32931;47.778;17.806;2023-08-08T05:25:17;15.20;99.90
47168;DHT22;32931;47.778;17.806;2023-08-08T05:27:44;15.20;99.90
47168;DHT22;32931;47.778;17.806;2023-08-08T05:30:10;15.30;99.90
47168;DHT22;32931;47.778;17.806;2023-08-08T05:32:36;15.30;99.90
47168;DHT22;32931;47.778;17.806;2023-08-08T05:35:03;15.30;99.90
47168;DHT22;32931;47.778;17.806;2023-08-08T05:37:30;15.40;99.90
47168;DHT22;32931;47.778;17.806;2023-08-08T05:39:56;15.50;99.90
47168;DHT22;32931;47.778;17.806;2023-08-08T05:42:22;15.50;99.90
47168;DHT22;32931;47.778;17.806;2023-08-08T05:44:48;15.60;99.90
47168;DHT22;32931;47.778;17.806;2023-08-08T05:47:14;15.70;99.90
47168;DHT22;32931;47.778;17.806;2023-08-08T05:49:41;15.80;99.90
47168;DHT22;32931;47.778;17.806;2023-08-08T05:52:08;15.90;99.90
47168;DHT22;32931;47.778;17.806;2023-08-08T05:54:35;16.00;99.90
47168;DHT22;32931;47.778;17.806;2023-08-08T05:57:02;16.00;99.90
47168;DHT22;32931;47.778;17.806;2023-08-08T05:59:28;16.10;99.90
47168;DHT22;32931;47.778;17.806;2023-08-08T06:01:55;16.10;99.90
47168;DHT22;32931;47.778;17.806;2023-08-08T06:04:21;16.10;99.90
47168;DHT22;32931;47.778;17.806;2023-08-08T06:06:47;16.10;99.90
47168;DHT22;32931;47.778;17.806;2023-08-08T06:09:15;16.20;99.90
47168;DHT22;32931;47.778;17.806;2023-08-08T06:11:41;16.20;99.90
47168;DHT22;32931;47.778;17.806;2023-08-08T06:14:07;16.30;99.90
47168;DHT22;32931;47.778;17.806;2023-08-08T06:16:33;16.30;99.90
47168;DHT22;32931;47.778;17.806;2023-08-08T06:19:00;16.30;99.90
47168;DHT22;32931;47.778;17.806;2023-08-08T06:21:26;16.30;99.90
47168;DHT22;32931;47.778;17.806;2023-08-08T06:23:52;16.30;99.90
47168;DHT22;32931;47.778;17.806;2023-08-08T06:26:21;16.30;99.90
47168;DHT22;32931;47.778;17.806;2023-08-08T06:28:47;16.30;99.90
47168;DHT22;32931;47.778;17.806;2023-08-08T06:31:14;16.30;99.90
47168;DHT22;32931;47.778;17.806;2023-08-08T06:33:40;16.30;99.90
47168;DHT22;32931;47.778;17.806;2023-08-08T06:36:06;16.40;99.90
47168;DHT22;32931;47.778;17.806;2023-08-08T06:38:33;16.40;99.90
47168;DHT22;32931;47.778;17.806;2023-08-08T06:41:00;16.50;99.90
47168;DHT22;32931;47.778;17.806;2023-08-08T06:43:26;16.40;99.90
47168;DHT22;32931;47.778;17.806;2023-08-08T06:45:52;16.40;99.90
47168;DHT22;32931;47.778;17.806;2023-08-08T06:48:18;16.40;99.90
47168;DHT22;32931;47.778;17.806;2023-08-08T06:50:45;16.40;99.90
47168;DHT22;32931;47.778;17.806;2023-08-08T06:53:11;16.40;99.90
47168;DHT22;32931;47.778;17.806;2023-08-08T06:55:37;16.50;99.90
47168;DHT22;32931;47.778;17.806;2023-08-08T06:58:03;16.60;99.90
47168;DHT22;32931;47.778;17.806;2023-08-08T07:00:29;16.60;99.90
47168;DHT22;32931;47.778;17.806;2023-08-08T07:02:55;16.60;99.90
47168;DHT22;32931;47.778;17.806;2023-08-08T07:05:22;16.70;99.90
47168;DHT22;32931;47.778;17.806;2023-08-08T07:07:52;16.70;99.90
47168;DHT22;32931;47.778;17.806;2023-08-08T07:10:19;16.80;99.90
47168;DHT22;32931;47.778;17.806;2023-08-08T07:12:45;16.90;99.90
47168;DHT22;32931;47.778;17.806;2023-08-08T07:15:11;16.90;99.90
47168;DHT22;32931;47.778;17.806;2023-08-08T07:17:38;17.00;99.90
47168;DHT22;32931;47.778;17.806;2023-08-08T07:20:05;17.10;99.90
47168;DHT22;32931;47.778;17.806;2023-08-08T07:22:32;17.20;99.90
47168;DHT22;32931;47.778;17.806;2023-08-08T07:24:58;17.30;99.90
47168;DHT22;32931;47.778;17.806;2023-08-08T07:27:26;17.30;99.90
47168;DHT22;32931;47.778;17.806;2023-08-08T07:29:53;17.40;99.90
47168;DHT22;32931;47.778;17.806;2023-08-08T07:32:19;17.50;99.90
47168;DHT22;32931;47.778;17.806;2023-08-08T07:34:45;17.60;99.90
47168;DHT22;32931;47.778;17.806;2023-08-08T07:37:11;17.70;99.90
47168;DHT22;32931;47.778;17.806;2023-08-08T07:39:37;17.70;99.90
47168;DHT22;32931;47.778;17.806;2023-08-08T07:42:03;17.80;99.90
47168;DHT22;32931;47.778;17.806;2023-08-08T07:44:29;17.80;99.90
47168;DHT22;32931;47.778;17.806;2023-08-08T07:46:57;17.90;99.90
47168;DHT22;32931;47.778;17.806;2023-08-08T07:49:23;17.90;99.90
47168;DHT22;32931;47.778;17.806;2023-08-08T07:51:49;18.00;99.90
47168;DHT22;32931;47.778;17.806;2023-08-08T07:54:16;18.00;99.90
47168;DHT22;32931;47.778;17.806;2023-08-08T07:56:42;18.10;99.90
47168;DHT22;32931;47.778;17.806;2023-08-08T07:59:08;18.20;99.90
47168;DHT22;32931;47.778;17.806;2023-08-08T08:01:35;18.30;99.90
47168;DHT22;32931;47.778;17.806;2023-08-08T08:04:02;18.40;99.90
47168;DHT22;32931;47.778;17.806;2023-08-08T08:06:28;18.50;99.90
47168;DHT22;32931;47.778;17.806;2023-08-08T08:08:55;18.60;99.90
47168;DHT22;32931;47.778;17.806;2023-08-08T08:11:21;18.70;99.90
47168;DHT22;32931;47.778;17.806;2023-08-08T08:13:47;18.70;99.90
47168;DHT22;32931;47.778;17.806;2023-08-08T08:16:13;18.70;99.90
47168;DHT22;32931;47.778;17.806;2023-08-08T08:18:39;18.80;99.90
47168;DHT22;32931;47.778;17.806;2023-08-08T08:21:06;18.90;99.90
47168;DHT22;32931;47.778;17.806;2023-08-08T08:23:32;18.90;99.90
47168;DHT22;32931;47.778;17.806;2023-08-08T08:25:58;19.00;99.90
47168;DHT22;32931;47.778;17.806;2023-08-08T08:28:26;19.00;99.90
47168;DHT22;32931;47.778;17.806;2023-08-08T08:30:52;19.10;99.90
47168;DHT22;32931;47.778;17.806;2023-08-08T08:33:18;19.00;99.90
47168;DHT22;32931;47.778;17.806;2023-08-08T08:35:44;19.00;99.90
47168;DHT22;32931;47.778;17.806;2023-08-08T08:38:11;19.00;99.90
47168;DHT22;32931;47.778;17.806;2023-08-08T08:40:40;19.00;99.90
47168;DHT22;32931;47.778;17.806;2023-08-08T08:43:07;19.00;99.90
47168;DHT22;32931;47.778;17.806;2023-08-08T08:45:37;19.00;99.90
47168;DHT22;32931;47.778;17.806;2023-08-08T08:48:10;19.00;99.90
47168;DHT22;32931;47.778;17.806;2023-08-08T08:50:39;19.00;99.90
47168;DHT22;32931;47.778;17.806;2023-08-08T08:53:06;19.10;99.90
47168;DHT22;32931;47.778;17.806;2023-08-08T08:55:32;19.10;99.90
47168;DHT22;32931;47.778;17.806;2023-08-08T08:57:59;19.10;99.90
47168;DHT22;32931;47.778;17.806;2023-08-08T09:00:25;19.10;99.90
47168;DHT22;32931;47.778;17.806;2023-08-08T09:02:52;19.20;99.90
47168;DHT22;32931;47.778;17.806;2023-08-08T09:05:21;19.30;99.90
47168;DHT22;32931;47.778;17.806;2023-08-08T09:07:48;19.40;99.90
47168;DHT22;32931;47.778;17.806;2023-08-08T09:10:15;19.40;99.90
47168;DHT22;32931;47.778;17.806;2023-08-08T09:12:42;19.50;99.90
47168;DHT22;32931;47.778;17.806;2023-08-08T09:15:09;19.50;99.90
47168;DHT22;32931;47.778;17.806;2023-08-08T09:17:36;19.60;99.90
47168;DHT22;32931;47.778;17.806;2023-08-08T09:20:06;19.60;99.90
47168;DHT22;32931;47.778;17.806;2023-08-08T09:22:33;19.60;99.90
47168;DHT22;32931;47.778;17.806;2023-08-08T09:24:59;19.70;99.90
47168;DHT22;32931;47.778;17.806;2023-08-08T09:27:28;19.70;99.90
47168;DHT22;32931;47.778;17.806;2023-08-08T09:29:55;19.70;99.90
47168;DHT22;32931;47.778;17.806;2023-08-08T09:32:21;19.80;99.90
47168;DHT22;32931;47.778;17.806;2023-08-08T09:34:47;19.80;99.90
47168;DHT22;32931;47.778;17.806;2023-08-08T09:37:13;19.90;99.90
47168;DHT22;32931;47.778;17.806;2023-08-08T09:39:40;19.90;99.80
47168;DHT22;32931;47.778;17.806;2023-08-08T09:42:08;19.90;99.80
47168;DHT22;32931;47.778;17.806;2023-08-08T09:44:34;19.80;99.60
47168;DHT22;32931;47.778;17.806;2023-08-08T09:47:01;19.80;99.90
47168;DHT22;32931;47.778;17.806;2023-08-08T09:49:28;19.80;99.90
47168;DHT22;32931;47.778;17.806;2023-08-08T09:51:55;19.80;99.90
47168;DHT22;32931;47.778;17.806;2023-08-08T09:54:22;19.90;99.90
47168;DHT22;32931;47.778;17.806;2023-08-08T09:56:50;20.00;99.90
47168;DHT22;32931;47.778;17.806;2023-08-08T09:59:17;20.10;99.90
47168;DHT22;32931;47.778;17.806;2023-08-08T10:01:45;20.10;99.10
47168;DHT22;32931;47.778;17.806;2023-08-08T10:04:12;20.20;98.90
47168;DHT22;32931;47.778;17.806;2023-08-08T10:06:39;20.30;98.70
47168;DHT22;32931;47.778;17.806;2023-08-08T10:09:05;20.40;98.90
47168;DHT22;32931;47.778;17.806;2023-08-08T10:11:32;20.50;99.30
47168;DHT22;32931;47.778;17.806;2023-08-08T10:14:01;20.60;99.40
47168;DHT22;32931;47.778;17.806;2023-08-08T10:16:32;20.70;99.10
47168;DHT22;32931;47.778;17.806;2023-08-08T10:19:03;20.80;98.30
47168;DHT22;32931;47.778;17.806;2023-08-08T10:21:34;20.80;98.00
47168;DHT22;32931;47.778;17.806;2023-08-08T10:24:06;20.80;97.40
47168;DHT22;32931;47.778;17.806;2023-08-08T10:26:33;20.80;97.80
47168;DHT22;32931;47.778;17.806;2023-08-08T10:29:01;20.80;98.00
47168;DHT22;32931;47.778;17.806;2023-08-08T10:31:33;20.80;98.00
47168;DHT22;32931;47.778;17.806;2023-08-08T10:34:06;20.70;97.60
47168;DHT22;32931;47.778;17.806;2023-08-08T10:36:51;20.70;97.60
47168;DHT22;32931;47.778;17.806;2023-08-08T10:39:21;20.70;97.20
47168;DHT22;32931;47.778;17.806;2023-08-08T10:41:50;20.70;97.90
47168;DHT22;32931;47.778;17.806;2023-08-08T10:44:23;20.60;97.70
47168;DHT22;32931;47.778;17.806;2023-08-08T10:46:51;20.60;97.80
47168;DHT22;32931;47.778;17.806;2023-08-08T10:49:18;20.60;98.70
47168;DHT22;32931;47.778;17.806;2023-08-08T10:51:46;20.50;99.40
47168;DHT22;32931;47.778;17.806;2023-08-08T10:54:15;20.50;99.90
47168;DHT22;32931;47.778;17.806;2023-08-08T10:56:51;20.40;99.90
47168;DHT22;32931;47.778;17.806;2023-08-08T10:59:43;20.20;99.90
47168;DHT22;32931;47.778;17.806;2023-08-08T11:02:10;19.70;99.90
47168;DHT22;32931;47.778;17.806;2023-08-08T11:04:36;19.20;99.90
47168;DHT22;32931;47.778;17.806;2023-08-08T11:07:03;18.90;99.90
47168;DHT22;32931;47.778;17.806;2023-08-08T11:09:30;18.70;99.90
47168;DHT22;32931;47.778;17.806;2023-08-08T11:11:56;18.60;99.90
47168;DHT22;32931;47.778;17.806;2023-08-08T11:14:22;18.50;99.90
47168;DHT22;32931;47.778;17.806;2023-08-08T11:16:50;18.40;99.90
47168;DHT22;32931;47.778;17.806;2023-08-08T11:19:17;18.40;99.90
47168;DHT22;32931;47.778;17.806;2023-08-08T11:21:46;18.40;99.90
47168;DHT22;32931;47.778;17.806;2023-08-08T11:24:13;18.30;99.90
47168;DHT22;32931;47.778;17.806;2023-08-08T11:26:41;18.20;99.90
47168;DHT22;32931;47.778;17.806;2023-08-08T11:29:08;18.10;99.90
47168;DHT22;32931;47.778;17.806;2023-08-08T11:31:34;17.90;99.90
47168;DHT22;32931;47.778;17.806;2023-08-08T11:34:01;17.70;99.90
47168;DHT22;32931;47.778;17.806;2023-08-08T11:36:31;17.50;99.90
47168;DHT22;32931;47.778;17.806;2023-08-08T11:39:00;17.30;99.90
47168;DHT22;32931;47.778;17.806;2023-08-08T11:41:29;17.10;99.90
47168;DHT22;32931;47.778;17.806;2023-08-08T11:43:56;17.10;99.90
47168;DHT22;32931;47.778;17.806;2023-08-08T11:46:23;17.10;99.90
47168;DHT22;32931;47.778;17.806;2023-08-08T11:48:50;17.30;99.90
47168;DHT22;32931;47.778;17.806;2023-08-08T11:51:16;17.40;99.90
47168;DHT22;32931;47.778;17.806;2023-08-08T11:53:53;17.60;99.90
47168;DHT22;32931;47.778;17.806;2023-08-08T11:56:20;17.80;99.90
47168;DHT22;32931;47.778;17.806;2023-08-08T11:58:49;18.00;99.90
47168;DHT22;32931;47.778;17.806;2023-08-08T12:01:19;18.20;99.90
47168;DHT22;32931;47.778;17.806;2023-08-08T12:03:46;18.30;99.90
47168;DHT22;32931;47.778;17.806;2023-08-08T12:06:16;18.60;99.90
47168;DHT22;32931;47.778;17.806;2023-08-08T12:08:44;18.90;99.90
47168;DHT22;32931;47.778;17.806;2023-08-08T12:11:11;19.40;99.90
47168;DHT22;32931;47.778;17.806;2023-08-08T12:13:42;19.90;99.90
47168;DHT22;32931;47.778;17.806;2023-08-08T12:16:10;20.30;99.90
47168;DHT22;32931;47.778;17.806;2023-08-08T12:18:38;20.50;99.90
47168;DHT22;32931;47.778;17.806;2023-08-08T12:21:08;20.80;99.90
47168;DHT22;32931;47.778;17.806;2023-08-08T12:23:36;21.20;99.90
47168;DHT22;32931;47.778;17.806;2023-08-08T12:26:04;21.50;99.90
47168;DHT22;32931;47.778;17.806;2023-08-08T12:28:34;21.80;99.90
47168;DHT22;32931;47.778;17.806;2023-08-08T12:31:00;22.10;99.90
47168;DHT22;32931;47.778;17.806;2023-08-08T12:33:27;22.50;99.90
47168;DHT22;32931;47.778;17.806;2023-08-08T12:35:53;22.80;99.90
47168;DHT22;32931;47.778;17.806;2023-08-08T12:38:19;22.90;99.90
47168;DHT22;32931;47.778;17.806;2023-08-08T12:40:46;23.20;99.90
47168;DHT22;32931;47.778;17.806;2023-08-08T12:43:12;23.20;99.90
47168;DHT22;32931;47.778;17.806;2023-08-08T12:45:40;23.20;99.90
47168;DHT22;32931;47.778;17.806;2023-08-08T12:48:06;23.20;99.90
47168;DHT22;32931;47.778;17.806;2023-08-08T12:50:32;23.10;99.90
47168;DHT22;32931;47.778;17.806;2023-08-08T12:52:58;23.10;99.90
47168;DHT22;32931;47.778;17.806;2023-08-08T12:55:24;23.20;99.90
47168;DHT22;32931;47.778;17.806;2023-08-08T12:57:51;23.30;99.90
47168;DHT22;32931;47.778;17.806;2023-08-08T13:00:17;23.40;99.90
47168;DHT22;32931;47.778;17.806;2023-08-08T13:02:43;23.40;99.90
47168;DHT22;32931;47.778;17.806;2023-08-08T13:05:09;23.40;99.90
47168;DHT22;32931;47.778;17.806;2023-08-08T13:07:36;23.30;99.90
47168;DHT22;32931;47.778;17.806;2023-08-08T13:10:02;23.20;99.90
47168;DHT22;32931;47.778;17.806;2023-08-08T13:12:28;23.20;99.90
47168;DHT22;32931;47.778;17.806;2023-08-08T13:14:54;23.10;99.90
47168;DHT22;32931;47.778;17.806;2023-08-08T13:17:20;23.00;99.90
47168;DHT22;32931;47.778;17.806;2023-08-08T13:19:47;22.90;99.90
47168;DHT22;32931;47.778;17.806;2023-08-08T13:22:13;22.80;99.90
47168;DHT22;32931;47.778;17.806;2023-08-08T13:24:39;22.80;99.90
47168;DHT22;32931;47.778;17.806;2023-08-08T13:27:05;22.80;99.90
47168;DHT22;32931;47.778;17.806;2023-08-08T13:29:31;22.80;99.90
47168;DHT22;32931;47.778;17.806;2023-08-08T13:31:58;22.80;99.90
47168;DHT22;32931;47.778;17.806;2023-08-08T13:34:24;22.80;99.90
47168;DHT22;32931;47.778;17.806;2023-08-08T13:36:50;22.90;99.90
47168;DHT22;32931;47.778;17.806;2023-08-08T13:39:16;22.80;99.90
47168;DHT22;32931;47.778;17.806;2023-08-08T13:41:42;22.80;99.90
47168;DHT22;32931;47.778;17.806;2023-08-08T13:44:09;22.70;99.90
47168;DHT22;32931;47.778;17.806;2023-08-08T13:46:35;22.60;99.90
47168;DHT22;32931;47.778;17.806;2023-08-08T13:49:01;22.60;99.90
47168;DHT22;32931;47.778;17.806;2023-08-08T13:51:27;22.50;99.90
47168;DHT22;32931;47.778;17.806;2023-08-08T13:53:53;22.50;99.90
47168;DHT22;32931;47.778;17.806;2023-08-08T13:56:20;22.50;99.90
47168;DHT22;32931;47.778;17.806;2023-08-08T13:58:46;22.60;99.90
47168;DHT22;32931;47.778;17.806;2023-08-08T14:01:12;22.60;99.90
47168;DHT22;32931;47.778;17.806;2023-08-08T14:03:38;22.60;99.90
47168;DHT22;32931;47.778;17.806;2023-08-08T14:06:05;22.70;99.90
47168;DHT22;32931;47.778;17.806;2023-08-08T14:08:32;22.80;99.90
47168;DHT22;32931;47.778;17.806;2023-08-08T14:10:58;22.80;99.90
47168;DHT22;32931;47.778;17.806;2023-08-08T14:13:24;22.90;99.90
47168;DHT22;32931;47.778;17.806;2023-08-08T14:15:50;22.90;99.90
47168;DHT22;32931;47.778;17.806;2023-08-08T14:18:18;23.00;99.90
47168;DHT22;32931;47.778;17.806;2023-08-08T14:20:44;23.00;99.90
47168;DHT22;32931;47.778;17.806;2023-08-08T14:23:10;23.10;99.90
47168;DHT22;32931;47.778;17.806;2023-08-08T14:25:36;23.20;99.90
47168;DHT22;32931;47.778;17.806;2023-08-08T14:28:03;23.20;99.90
47168;DHT22;32931;47.778;17.806;2023-08-08T14:30:30;23.30;99.90
47168;DHT22;32931;47.778;17.806;2023-08-08T14:32:56;23.40;99.90
47168;DHT22;32931;47.778;17.806;2023-08-08T14:35:22;23.60;99.90
47168;DHT22;32931;47.778;17.806;2023-08-08T14:37:49;23.90;99.90
47168;DHT22;32931;47.778;17.806;2023-08-08T14:40:15;24.00;99.90
47168;DHT22;32931;47.778;17.806;2023-08-08T14:42:41;24.10;99.90
47168;DHT22;32931;47.778;17.806;2023-08-08T14:45:07;24.30;99.90
47168;DHT22;32931;47.778;17.806;2023-08-08T14:47:34;24.30;99.90
47168;DHT22;32931;47.778;17.806;2023-08-08T14:50:00;24.40;99.90
47168;DHT22;32931;47.778;17.806;2023-08-08T14:52:26;24.40;99.90
47168;DHT22;32931;47.778;17.806;2023-08-08T14:54:52;24.40;99.50
47168;DHT22;32931;47.778;17.806;2023-08-08T14:57:18;24.40;99.60
47168;DHT22;32931;47.778;17.806;2023-08-08T14:59:44;24.30;98.70
47168;DHT22;32931;47.778;17.806;2023-08-08T15:02:10;24.30;98.20
47168;DHT22;32931;47.778;17.806;2023-08-08T15:04:36;24.30;98.60
47168;DHT22;32931;47.778;17.806;2023-08-08T15:07:03;24.30;98.20
47168;DHT22;32931;47.778;17.806;2023-08-08T15:09:29;24.30;98.10
47168;DHT22;32931;47.778;17.806;2023-08-08T15:11:55;24.40;98.20
47168;DHT22;32931;47.778;17.806;2023-08-08T15:14:21;24.60;98.70